sensor_id;sensor_type;location;lat;lon;timestamp;P1;durP1;ratioP1;P2;durP2;ratioP2
26113;SDS011;13966;48.828;9.064;2023-07-13T00:01:44;3.88;;;1.27;;
26113;SDS011;13966;48.828;9.064;2023-07-13T00:04:11;3.22;;;1.02;;
26113;SDS011;13966;48.828;9.064;2023-07-13T00:06:37;6.00;;;1.50;;
26113;SDS011;13966;48.828;9.064;2023-07-13T00:09:03;4.10;;;1.17;;
26113;SDS011;13966;48.828;9.064;2023-07-13T00:11:29;1.85;;;1.10;;
26113;SDS011;13966;48.828;9.064;2023-07-13T00:13:55;4.25;;;1.33;;
26113;SDS011;13966;48.828;9.064;2023-07-13T00:16:21;7.07;;;1.08;;
26113;SDS011;13966;48.828;9.064;2023-07-13T00:18:47;7.43;;;1.00;;
26113;SDS011;13966;48.828;9.064;2023-07-13T00:21:13;4.18;;;1.00;;
26113;SDS011;13966;48.828;9.064;2023-07-13T00:23:40;4.50;;;1.40;;
26113;SDS011;13966;48.828;9.064;2023-07-13T00:26:06;3.70;;;1.27;;
26113;SDS011;13966;48.828;9.064;2023-07-13T00:28:33;5.00;;;1.10;;
26113;SDS011;13966;48.828;9.064;2023-07-13T00:30:59;6.07;;;1.30;;
26113;SDS011;13966;48.828;9.064;2023-07-13T00:33:27;4.78;;;1.40;;
26113;SDS011;13966;48.828;9.064;2023-07-13T00:35:53;2.40;;;0.90;;
26113;SDS011;13966;48.828;9.064;2023-07-13T00:38:19;4.78;;;1.30;;
26113;SDS011;13966;48.828;9.064;2023-07-13T00:40:45;6.35;;;1.40;;
26113;SDS011;13966;48.828;9.064;2023-07-13T00:43:16;2.67;;;1.25;;
26113;SDS011;13966;48.828;9.064;2023-07-13T00:48:09;3.63;;;1.10;;
26113;SDS011;13966;48.828;9.064;2023-07-13T00:50:35;2.85;;;1.00;;
26113;SDS011;13966;48.828;9.064;2023-07-13T00:53:01;4.30;;;1.45;;
26113;SDS011;13966;48.828;9.064;2023-07-13T00:55:28;3.60;;;1.00;;
26113;SDS011;13966;48.828;9.064;2023-07-13T00:57:54;9.20;;;1.38;;
26113;SDS011;13966;48.828;9.064;2023-07-13T01:00:21;4.25;;;1.35;;
26113;SDS011;13966;48.828;9.064;2023-07-13T01:02:48;2.83;;;1.15;;
26113;SDS011;13966;48.828;9.064;2023-07-13T01:05:17;4.00;;;1.23;;
26113;SDS011;13966;48.828;9.064;2023-07-13T01:07:43;2.97;;;0.93;;
26113;SDS011;13966;48.828;9.064;2023-07-13T01:10:11;5.95;;;1.15;;
26113;SDS011;13966;48.828;9.064;2023-07-13T01:12:37;4.68;;;1.10;;
26113;SDS011;13966;48.828;9.064;2023-07-13T01:15:03;10.43;;;1.40;;
26113;SDS011;13966;48.828;9.064;2023-07-13T01:17:29;6.15;;;1.20;;
26113;SDS011;13966;48.828;9.064;2023-07-13T01:19:57;3.08;;;1.23;;
26113;SDS011;13966;48.828;9.064;2023-07-13T01:22:23;3.08;;;1.00;;
26113;SDS011;13966;48.828;9.064;2023-07-13T01:24:51;2.83;;;1.00;;
26113;SDS011;13966;48.828;9.064;2023-07-13T01:27:20;3.90;;;1.13;;
26113;SDS011;13966;48.828;9.064;2023-07-13T01:29:46;1.92;;;0.98;;
26113;SDS011;13966;48.828;9.064;2023-07-13T01:32:14;5.13;;;1.30;;
26113;SDS011;13966;48.828;9.064;2023-07-13T01:34:40;6.38;;;1.27;;
26113;SDS011;13966;48.828;9.064;2023-07-13T01:37:07;5.03;;;1.35;;
26113;SDS011;13966;48.828;9.064;2023-07-13T01:39:33;4.57;;;1.20;;
26113;SDS011;13966;48.828;9.064;2023-07-13T01:41:59;3.33;;;1.20;;
26113;SDS011;13966;48.828;9.064;2023-07-13T01:44:26;2.97;;;0.95;;
26113;SDS011;13966;48.828;9.064;2023-07-13T01:46:52;5.85;;;1.30;;
26113;SDS011;13966;48.828;9.064;2023-07-13T01:49:18;7.43;;;1.42;;
26113;SDS011;13966;48.828;9.064;2023-07-13T01:51:44;4.45;;;1.17;;
26113;SDS011;13966;48.828;9.064;2023-07-13T01:54:10;3.90;;;1.50;;
26113;SDS011;13966;48.828;9.064;2023-07-13T01:56:36;3.10;;;1.33;;
26113;SDS011;13966;48.828;9.064;2023-07-13T01:59:02;7.82;;;1.48;;
26113;SDS011;13966;48.828;9.064;2023-07-13T02:01:28;3.28;;;1.25;;
26113;SDS011;13966;48.828;9.064;2023-07-13T02:03:54;3.45;;;1.00;;
26113;SDS011;13966;48.828;9.064;2023-07-13T02:06:20;2.55;;;1.20;;
26113;SDS011;13966;48.828;9.064;2023-07-13T02:08:46;5.60;;;1.42;;
26113;SDS011;13966;48.828;9.064;2023-07-13T02:11:12;4.22;;;1.25;;
26113;SDS011;13966;48.828;9.064;2023-07-13T02:13:38;2.08;;;1.25;;
26113;SDS011;13966;48.828;9.064;2023-07-13T02:16:05;2.13;;;1.17;;
26113;SDS011;13966;48.828;9.064;2023-07-13T02:18:31;6.18;;;1.40;;
26113;SDS011;13966;48.828;9.064;2023-07-13T02:20:57;5.03;;;1.13;;
26113;SDS011;13966;48.828;9.064;2023-07-13T02:23:23;2.28;;;1.20;;
26113;SDS011;13966;48.828;9.064;2023-07-13T02:25:53;5.05;;;1.20;;
26113;SDS011;13966;48.828;9.064;2023-07-13T02:28:19;5.82;;;1.30;;
26113;SDS011;13966;48.828;9.064;2023-07-13T02:30:45;1.92;;;1.35;;
26113;SDS011;13966;48.828;9.064;2023-07-13T02:33:11;3.78;;;1.38;;
26113;SDS011;13966;48.828;9.064;2023-07-13T02:35:38;3.72;;;1.20;;
26113;SDS011;13966;48.828;9.064;2023-07-13T02:38:04;4.57;;;1.30;;
26113;SDS011;13966;48.828;9.064;2023-07-13T02:40:30;2.67;;;1.10;;
26113;SDS011;13966;48.828;9.064;2023-07-13T02:42:58;6.40;;;1.42;;
26113;SDS011;13966;48.828;9.064;2023-07-13T02:45:24;2.97;;;1.25;;
26113;SDS011;13966;48.828;9.064;2023-07-13T02:47:50;3.33;;;1.08;;
26113;SDS011;13966;48.828;9.064;2023-07-13T02:50:16;5.22;;;1.13;;
26113;SDS011;13966;48.828;9.064;2023-07-13T02:52:42;4.93;;;1.50;;
26113;SDS011;13966;48.828;9.064;2023-07-13T02:55:08;7.78;;;1.40;;
26113;SDS011;13966;48.828;9.064;2023-07-13T02:57:35;5.65;;;1.77;;
26113;SDS011;13966;48.828;9.064;2023-07-13T03:00:01;4.63;;;1.35;;
26113;SDS011;13966;48.828;9.064;2023-07-13T03:02:30;2.72;;;1.35;;
26113;SDS011;13966;48.828;9.064;2023-07-13T03:04:57;2.17;;;1.30;;
26113;SDS011;13966;48.828;9.064;2023-07-13T03:07:23;3.42;;;1.42;;
26113;SDS011;13966;48.828;9.064;2023-07-13T03:09:53;5.07;;;1.80;;
26113;SDS011;13966;48.828;9.064;2023-07-13T03:12:20;7.38;;;1.35;;
26113;SDS011;13966;48.828;9.064;2023-07-13T03:14:46;5.78;;;1.45;;
26113;SDS011;13966;48.828;9.064;2023-07-13T03:17:12;6.63;;;1.85;;
26113;SDS011;13966;48.828;9.064;2023-07-13T03:19:38;5.72;;;1.60;;
26113;SDS011;13966;48.828;9.064;2023-07-13T03:22:04;5.90;;;1.63;;
26113;SDS011;13966;48.828;9.064;2023-07-13T03:24:32;3.40;;;1.52;;
26113;SDS011;13966;48.828;9.064;2023-07-13T03:26:57;3.47;;;1.50;;
26113;SDS011;13966;48.828;9.064;2023-07-13T03:29:24;4.72;;;1.42;;
26113;SDS011;13966;48.828;9.064;2023-07-13T03:31:49;5.22;;;1.80;;
26113;SDS011;13966;48.828;9.064;2023-07-13T03:34:15;4.10;;;1.70;;
26113;SDS011;13966;48.828;9.064;2023-07-13T03:36:41;4.30;;;1.65;;
26113;SDS011;13966;48.828;9.064;2023-07-13T03:39:08;6.28;;;1.52;;
26113;SDS011;13966;48.828;9.064;2023-07-13T03:41:34;3.92;;;1.40;;
26113;SDS011;13966;48.828;9.064;2023-07-13T03:44:00;3.40;;;1.40;;
26113;SDS011;13966;48.828;9.064;2023-07-13T03:46:26;4.88;;;1.38;;
26113;SDS011;13966;48.828;9.064;2023-07-13T03:48:52;4.40;;;1.60;;
26113;SDS011;13966;48.828;9.064;2023-07-13T03:51:18;4.72;;;1.65;;
26113;SDS011;13966;48.828;9.064;2023-07-13T03:53:45;3.97;;;1.33;;
26113;SDS011;13966;48.828;9.064;2023-07-13T03:56:11;8.63;;;1.58;;
26113;SDS011;13966;48.828;9.064;2023-07-13T03:58:39;3.50;;;1.60;;
26113;SDS011;13966;48.828;9.064;2023-07-13T04:01:06;7.47;;;1.70;;
26113;SDS011;13966;48.828;9.064;2023-07-13T04:03:33;4.72;;;2.00;;
26113;SDS011;13966;48.828;9.064;2023-07-13T04:06:00;3.47;;;1.52;;
26113;SDS011;13966;48.828;9.064;2023-07-13T04:08:27;4.68;;;1.98;;
26113;SDS011;13966;48.828;9.064;2023-07-13T04:10:53;2.60;;;1.63;;
26113;SDS011;13966;48.828;9.064;2023-07-13T04:13:19;6.25;;;1.90;;
26113;SDS011;13966;48.828;9.064;2023-07-13T04:15:45;5.28;;;2.22;;
26113;SDS011;13966;48.828;9.064;2023-07-13T04:18:11;2.85;;;1.55;;
26113;SDS011;13966;48.828;9.064;2023-07-13T04:20:37;6.47;;;1.67;;
26113;SDS011;13966;48.828;9.064;2023-07-13T04:23:03;5.20;;;1.50;;
26113;SDS011;13966;48.828;9.064;2023-07-13T04:25:29;5.15;;;1.83;;
26113;SDS011;13966;48.828;9.064;2023-07-13T04:27:55;2.70;;;1.80;;
26113;SDS011;13966;48.828;9.064;2023-07-13T04:30:22;4.68;;;1.98;;
26113;SDS011;13966;48.828;9.064;2023-07-13T04:32:50;4.70;;;1.77;;
26113;SDS011;13966;48.828;9.064;2023-07-13T04:35:17;6.13;;;1.90;;
26113;SDS011;13966;48.828;9.064;2023-07-13T04:37:45;5.97;;;2.20;;
26113;SDS011;13966;48.828;9.064;2023-07-13T04:40:11;2.72;;;2.10;;
26113;SDS011;13966;48.828;9.064;2023-07-13T04:42:37;6.25;;;2.55;;
26113;SDS011;13966;48.828;9.064;2023-07-13T04:45:05;4.22;;;1.95;;
26113;SDS011;13966;48.828;9.064;2023-07-13T04:47:31;4.13;;;1.80;;
26113;SDS011;13966;48.828;9.064;2023-07-13T04:49:57;4.82;;;1.88;;
26113;SDS011;13966;48.828;9.064;2023-07-13T04:52:23;4.03;;;2.00;;
26113;SDS011;13966;48.828;9.064;2023-07-13T04:54:49;4.88;;;1.90;;
26113;SDS011;13966;48.828;9.064;2023-07-13T04:57:15;2.38;;;1.52;;
26113;SDS011;13966;48.828;9.064;2023-07-13T04:59:41;3.08;;;1.80;;
26113;SDS011;13966;48.828;9.064;2023-07-13T05:02:07;8.40;;;2.30;;
26113;SDS011;13966;48.828;9.064;2023-07-13T05:04:33;4.38;;;2.10;;
26113;SDS011;13966;48.828;9.064;2023-07-13T05:06:59;5.72;;;1.85;;
26113;SDS011;13966;48.828;9.064;2023-07-13T05:09:25;7.13;;;2.03;;
26113;SDS011;13966;48.828;9.064;2023-07-13T05:11:51;6.75;;;1.88;;
26113;SDS011;13966;48.828;9.064;2023-07-13T05:14:18;5.75;;;2.00;;
26113;SDS011;13966;48.828;9.064;2023-07-13T05:16:44;5.95;;;2.33;;
26113;SDS011;13966;48.828;9.064;2023-07-13T05:19:10;3.75;;;2.00;;
26113;SDS011;13966;48.828;9.064;2023-07-13T05:21:36;4.40;;;2.20;;
26113;SDS011;13966;48.828;9.064;2023-07-13T05:24:02;4.60;;;1.77;;
26113;SDS011;13966;48.828;9.064;2023-07-13T05:26:28;6.40;;;2.30;;
26113;SDS011;13966;48.828;9.064;2023-07-13T05:28:54;6.15;;;1.58;;
26113;SDS011;13966;48.828;9.064;2023-07-13T05:31:20;6.70;;;2.00;;
26113;SDS011;13966;48.828;9.064;2023-07-13T05:33:46;3.42;;;1.70;;
26113;SDS011;13966;48.828;9.064;2023-07-13T05:36:12;8.57;;;1.83;;
26113;SDS011;13966;48.828;9.064;2023-07-13T05:38:38;3.85;;;2.05;;
26113;SDS011;13966;48.828;9.064;2023-07-13T05:41:05;8.43;;;1.92;;
26113;SDS011;13966;48.828;9.064;2023-07-13T05:43:31;3.78;;;1.90;;
26113;SDS011;13966;48.828;9.064;2023-07-13T05:45:57;6.38;;;2.17;;
26113;SDS011;13966;48.828;9.064;2023-07-13T05:48:23;6.00;;;1.83;;
26113;SDS011;13966;48.828;9.064;2023-07-13T05:50:49;5.72;;;1.92;;
26113;SDS011;13966;48.828;9.064;2023-07-13T05:53:15;4.75;;;2.05;;
26113;SDS011;13966;48.828;9.064;2023-07-13T05:55:45;4.13;;;1.80;;
26113;SDS011;13966;48.828;9.064;2023-07-13T05:58:18;4.60;;;1.50;;
26113;SDS011;13966;48.828;9.064;2023-07-13T06:00:44;6.70;;;2.00;;
26113;SDS011;13966;48.828;9.064;2023-07-13T06:03:10;9.20;;;2.13;;
26113;SDS011;13966;48.828;9.064;2023-07-13T06:05:36;2.45;;;1.42;;
26113;SDS011;13966;48.828;9.064;2023-07-13T06:08:03;3.55;;;1.77;;
26113;SDS011;13966;48.828;9.064;2023-07-13T06:10:29;3.17;;;1.48;;
26113;SDS011;13966;48.828;9.064;2023-07-13T06:12:57;7.25;;;1.50;;
26113;SDS011;13966;48.828;9.064;2023-07-13T06:15:23;2.85;;;1.48;;
26113;SDS011;13966;48.828;9.064;2023-07-13T06:17:49;6.32;;;1.55;;
26113;SDS011;13966;48.828;9.064;2023-07-13T06:20:15;5.05;;;1.63;;
26113;SDS011;13966;48.828;9.064;2023-07-13T06:22:41;6.75;;;1.70;;
26113;SDS011;13966;48.828;9.064;2023-07-13T06:25:07;5.35;;;1.73;;
26113;SDS011;13966;48.828;9.064;2023-07-13T06:27:34;3.60;;;1.67;;
26113;SDS011;13966;48.828;9.064;2023-07-13T06:30:00;3.67;;;1.52;;
26113;SDS011;13966;48.828;9.064;2023-07-13T06:32:26;6.90;;;1.45;;
26113;SDS011;13966;48.828;9.064;2023-07-13T06:34:52;11.68;;;1.65;;
26113;SDS011;13966;48.828;9.064;2023-07-13T06:37:18;5.60;;;1.70;;
26113;SDS011;13966;48.828;9.064;2023-07-13T06:39:44;2.78;;;1.08;;
26113;SDS011;13966;48.828;9.064;2023-07-13T06:42:10;6.85;;;1.85;;
26113;SDS011;13966;48.828;9.064;2023-07-13T06:44:36;5.57;;;1.45;;
26113;SDS011;13966;48.828;9.064;2023-07-13T06:47:02;6.25;;;1.90;;
26113;SDS011;13966;48.828;9.064;2023-07-13T06:49:28;4.32;;;1.50;;
26113;SDS011;13966;48.828;9.064;2023-07-13T06:51:54;5.97;;;1.50;;
26113;SDS011;13966;48.828;9.064;2023-07-13T06:54:20;7.10;;;1.70;;
26113;SDS011;13966;48.828;9.064;2023-07-13T06:56:46;6.25;;;1.20;;
26113;SDS011;13966;48.828;9.064;2023-07-13T06:59:12;4.32;;;1.73;;
26113;SDS011;13966;48.828;9.064;2023-07-13T07:01:38;2.95;;;1.20;;
26113;SDS011;13966;48.828;9.064;2023-07-13T07:04:04;3.22;;;1.50;;
26113;SDS011;13966;48.828;9.064;2023-07-13T07:06:30;3.97;;;1.25;;
26113;SDS011;13966;48.828;9.064;2023-07-13T07:08:56;3.85;;;1.42;;
26113;SDS011;13966;48.828;9.064;2023-07-13T07:11:23;3.75;;;1.30;;
26113;SDS011;13966;48.828;9.064;2023-07-13T07:13:50;5.50;;;1.23;;
26113;SDS011;13966;48.828;9.064;2023-07-13T07:16:16;6.90;;;1.30;;
26113;SDS011;13966;48.828;9.064;2023-07-13T07:18:42;2.50;;;1.20;;
26113;SDS011;13966;48.828;9.064;2023-07-13T07:21:08;5.80;;;1.58;;
26113;SDS011;13966;48.828;9.064;2023-07-13T07:23:34;8.50;;;1.52;;
26113;SDS011;13966;48.828;9.064;2023-07-13T07:26:00;2.55;;;1.25;;
26113;SDS011;13966;48.828;9.064;2023-07-13T07:28:26;3.88;;;1.00;;
26113;SDS011;13966;48.828;9.064;2023-07-13T07:30:54;3.30;;;1.27;;
26113;SDS011;13966;48.828;9.064;2023-07-13T07:33:20;4.13;;;1.30;;
26113;SDS011;13966;48.828;9.064;2023-07-13T07:35:46;7.38;;;1.65;;
26113;SDS011;13966;48.828;9.064;2023-07-13T07:38:13;4.53;;;1.40;;
26113;SDS011;13966;48.828;9.064;2023-07-13T07:40:39;6.22;;;1.45;;
26113;SDS011;13966;48.828;9.064;2023-07-13T07:43:06;5.18;;;1.50;;
26113;SDS011;13966;48.828;9.064;2023-07-13T07:45:32;4.63;;;1.25;;
26113;SDS011;13966;48.828;9.064;2023-07-13T07:47:58;4.50;;;1.08;;
26113;SDS011;13966;48.828;9.064;2023-07-13T07:50:25;4.95;;;1.50;;
26113;SDS011;13966;48.828;9.064;2023-07-13T07:52:51;4.85;;;1.67;;
26113;SDS011;13966;48.828;9.064;2023-07-13T07:55:17;4.47;;;1.20;;
26113;SDS011;13966;48.828;9.064;2023-07-13T07:57:43;3.00;;;1.38;;
26113;SDS011;13966;48.828;9.064;2023-07-13T08:00:09;5.50;;;1.38;;
26113;SDS011;13966;48.828;9.064;2023-07-13T08:02:35;7.32;;;1.65;;
26113;SDS011;13966;48.828;9.064;2023-07-13T08:05:01;5.22;;;1.30;;
26113;SDS011;13966;48.828;9.064;2023-07-13T08:07:29;9.93;;;1.98;;
26113;SDS011;13966;48.828;9.064;2023-07-13T08:09:56;5.13;;;1.20;;
26113;SDS011;13966;48.828;9.064;2023-07-13T08:12:22;6.15;;;1.17;;
26113;SDS011;13966;48.828;9.064;2023-07-13T08:14:51;4.03;;;1.05;;
26113;SDS011;13966;48.828;9.064;2023-07-13T08:17:23;3.00;;;1.10;;
26113;SDS011;13966;48.828;9.064;2023-07-13T08:19:49;4.97;;;1.10;;
26113;SDS011;13966;48.828;9.064;2023-07-13T08:22:15;3.83;;;1.20;;
26113;SDS011;13966;48.828;9.064;2023-07-13T08:24:41;3.50;;;1.02;;
26113;SDS011;13966;48.828;9.064;2023-07-13T08:27:10;3.80;;;1.60;;
26113;SDS011;13966;48.828;9.064;2023-07-13T08:29:37;3.65;;;1.20;;
26113;SDS011;13966;48.828;9.064;2023-07-13T08:32:04;4.93;;;1.10;;
26113;SDS011;13966;48.828;9.064;2023-07-13T08:34:30;4.35;;;1.25;;
26113;SDS011;13966;48.828;9.064;2023-07-13T08:36:56;5.72;;;1.27;;
26113;SDS011;13966;48.828;9.064;2023-07-13T08:39:23;3.67;;;0.93;;
26113;SDS011;13966;48.828;9.064;2023-07-13T08:41:51;7.13;;;1.10;;
26113;SDS011;13966;48.828;9.064;2023-07-13T08:44:20;5.95;;;1.00;;
26113;SDS011;13966;48.828;9.064;2023-07-13T08:46:49;2.22;;;1.02;;
26113;SDS011;13966;48.828;9.064;2023-07-13T08:49:18;7.60;;;1.40;;
26113;SDS011;13966;48.828;9.064;2023-07-13T08:51:49;3.10;;;0.95;;
26113;SDS011;13966;48.828;9.064;2023-07-13T08:54:24;3.58;;;1.13;;
26113;SDS011;13966;48.828;9.064;2023-07-13T08:56:54;7.18;;;1.50;;
26113;SDS011;13966;48.828;9.064;2023-07-13T08:59:24;2.17;;;1.20;;
26113;SDS011;13966;48.828;9.064;2023-07-13T09:04:18;4.03;;;1.30;;
26113;SDS011;13966;48.828;9.064;2023-07-13T09:12:21;5.88;;;1.30;;
26113;SDS011;13966;48.828;9.064;2023-07-13T09:14:53;3.10;;;0.98;;
26113;SDS011;13966;48.828;9.064;2023-07-13T09:17:23;2.20;;;0.80;;
26113;SDS011;13966;48.828;9.064;2023-07-13T09:20:13;6.82;;;1.13;;
26113;SDS011;13966;48.828;9.064;2023-07-13T09:22:40;8.70;;;1.48;;
26113;SDS011;13966;48.828;9.064;2023-07-13T09:25:15;4.43;;;1.20;;
26113;SDS011;13966;48.828;9.064;2023-07-13T09:27:46;6.47;;;1.23;;
26113;SDS011;13966;48.828;9.064;2023-07-13T09:32:39;6.38;;;1.20;;
26113;SDS011;13966;48.828;9.064;2023-07-13T09:35:12;3.25;;;1.27;;
26113;SDS011;13966;48.828;9.064;2023-07-13T09:37:38;3.63;;;1.23;;
26113;SDS011;13966;48.828;9.064;2023-07-13T09:40:09;2.97;;;1.00;;
26113;SDS011;13966;48.828;9.064;2023-07-13T09:42:37;4.22;;;0.90;;
26113;SDS011;13966;48.828;9.064;2023-07-13T09:45:03;2.50;;;0.90;;
26113;SDS011;13966;48.828;9.064;2023-07-13T09:47:32;3.88;;;0.82;;
26113;SDS011;13966;48.828;9.064;2023-07-13T09:50:02;2.65;;;1.15;;
26113;SDS011;13966;48.828;9.064;2023-07-13T09:52:50;3.40;;;1.25;;
26113;SDS011;13966;48.828;9.064;2023-07-13T09:55:23;2.22;;;1.02;;
26113;SDS011;13966;48.828;9.064;2023-07-13T09:57:50;1.98;;;1.00;;
26113;SDS011;13966;48.828;9.064;2023-07-13T10:00:21;6.00;;;1.13;;
26113;SDS011;13966;48.828;9.064;2023-07-13T10:02:49;3.60;;;1.27;;
26113;SDS011;13966;48.828;9.064;2023-07-13T10:05:23;3.55;;;1.10;;
26113;SDS011;13966;48.828;9.064;2023-07-13T10:07:50;6.18;;;1.02;;
26113;SDS011;13966;48.828;9.064;2023-07-13T10:10:18;2.83;;;1.02;;
26113;SDS011;13966;48.828;9.064;2023-07-13T10:12:46;2.60;;;1.00;;
26113;SDS011;13966;48.828;9.064;2023-07-13T10:15:16;2.88;;;1.27;;
26113;SDS011;13966;48.828;9.064;2023-07-13T10:17:43;4.22;;;1.00;;
26113;SDS011;13966;48.828;9.064;2023-07-13T10:20:09;3.10;;;1.20;;
26113;SDS011;13966;48.828;9.064;2023-07-13T10:22:41;2.17;;;0.90;;
26113;SDS011;13966;48.828;9.064;2023-07-13T10:25:16;5.53;;;1.17;;
26113;SDS011;13966;48.828;9.064;2023-07-13T10:27:43;3.50;;;1.10;;
26113;SDS011;13966;48.828;9.064;2023-07-13T10:30:29;3.00;;;1.10;;
26113;SDS011;13966;48.828;9.064;2023-07-13T10:32:57;5.15;;;1.10;;
26113;SDS011;13966;48.828;9.064;2023-07-13T10:35:24;2.35;;;0.98;;
26113;SDS011;13966;48.828;9.064;2023-07-13T10:38:13;1.73;;;0.80;;
26113;SDS011;13966;48.828;9.064;2023-07-13T10:40:42;5.72;;;1.15;;
26113;SDS011;13966;48.828;9.064;2023-07-13T10:43:12;5.20;;;0.90;;
26113;SDS011;13966;48.828;9.064;2023-07-13T10:45:40;7.28;;;1.00;;
26113;SDS011;13966;48.828;9.064;2023-07-13T10:48:06;2.63;;;1.00;;
26113;SDS011;13966;48.828;9.064;2023-07-13T10:50:35;3.33;;;0.80;;
26113;SDS011;13966;48.828;9.064;2023-07-13T10:53:17;3.67;;;1.10;;
26113;SDS011;13966;48.828;9.064;2023-07-13T11:01:29;4.07;;;1.02;;
26113;SDS011;13966;48.828;9.064;2023-07-13T11:03:31;2.78;;;0.88;;
26113;SDS011;13966;48.828;9.064;2023-07-13T11:09:28;3.22;;;1.23;;
26113;SDS011;13966;48.828;9.064;2023-07-13T11:11:56;2.08;;;1.15;;
26113;SDS011;13966;48.828;9.064;2023-07-13T11:14:27;4.80;;;1.10;;
26113;SDS011;13966;48.828;9.064;2023-07-13T11:16:53;2.30;;;1.10;;
26113;SDS011;13966;48.828;9.064;2023-07-13T11:24:47;3.53;;;1.17;;
26113;SDS011;13966;48.828;9.064;2023-07-13T11:30:07;2.15;;;1.00;;
26113;SDS011;13966;48.828;9.064;2023-07-13T11:32:33;4.82;;;1.40;;
26113;SDS011;13966;48.828;9.064;2023-07-13T11:34:59;5.40;;;1.08;;
26113;SDS011;13966;48.828;9.064;2023-07-13T11:37:25;4.57;;;1.13;;
26113;SDS011;13966;48.828;9.064;2023-07-13T11:39:53;2.70;;;1.08;;
26113;SDS011;13966;48.828;9.064;2023-07-13T11:42:20;3.45;;;1.00;;
26113;SDS011;13966;48.828;9.064;2023-07-13T11:44:47;2.88;;;1.25;;
26113;SDS011;13966;48.828;9.064;2023-07-13T11:47:18;4.40;;;0.88;;
26113;SDS011;13966;48.828;9.064;2023-07-13T11:49:53;4.55;;;0.95;;
26113;SDS011;13966;48.828;9.064;2023-07-13T11:52:36;2.95;;;1.00;;
26113;SDS011;13966;48.828;9.064;2023-07-13T11:55:04;4.20;;;0.93;;
26113;SDS011;13966;48.828;9.064;2023-07-13T11:57:41;3.85;;;1.00;;
26113;SDS011;13966;48.828;9.064;2023-07-13T12:00:13;4.32;;;1.23;;
26113;SDS011;13966;48.828;9.064;2023-07-13T12:02:43;6.25;;;1.10;;
26113;SDS011;13966;48.828;9.064;2023-07-13T12:05:11;4.55;;;1.05;;
26113;SDS011;13966;48.828;9.064;2023-07-13T12:07:38;2.55;;;1.13;;
26113;SDS011;13966;48.828;9.064;2023-07-13T12:12:36;4.78;;;1.10;;
26113;SDS011;13966;48.828;9.064;2023-07-13T12:15:06;3.30;;;1.25;;
26113;SDS011;13966;48.828;9.064;2023-07-13T12:17:33;2.30;;;0.82;;
26113;SDS011;13966;48.828;9.064;2023-07-13T12:20:00;7.32;;;1.00;;
26113;SDS011;13966;48.828;9.064;2023-07-13T12:22:26;4.55;;;1.10;;
26113;SDS011;13966;48.828;9.064;2023-07-13T12:24:52;3.88;;;0.90;;
26113;SDS011;13966;48.828;9.064;2023-07-13T12:27:20;3.15;;;1.00;;
26113;SDS011;13966;48.828;9.064;2023-07-13T12:32:23;3.17;;;1.00;;
26113;SDS011;13966;48.828;9.064;2023-07-13T12:34:53;7.85;;;1.40;;
26113;SDS011;13966;48.828;9.064;2023-07-13T12:37:20;3.70;;;1.40;;
26113;SDS011;13966;48.828;9.064;2023-07-13T12:39:46;1.73;;;0.82;;
26113;SDS011;13966;48.828;9.064;2023-07-13T12:44:40;2.83;;;1.00;;
26113;SDS011;13966;48.828;9.064;2023-07-13T12:47:09;1.73;;;0.90;;
26113;SDS011;13966;48.828;9.064;2023-07-13T12:49:40;2.35;;;1.10;;
26113;SDS011;13966;48.828;9.064;2023-07-13T12:52:12;3.65;;;0.90;;
26113;SDS011;13966;48.828;9.064;2023-07-13T12:54:39;6.35;;;0.85;;
26113;SDS011;13966;48.828;9.064;2023-07-13T12:57:05;5.22;;;1.02;;
26113;SDS011;13966;48.828;9.064;2023-07-13T12:59:34;4.60;;;1.10;;
26113;SDS011;13966;48.828;9.064;2023-07-13T13:02:01;2.38;;;1.00;;
26113;SDS011;13966;48.828;9.064;2023-07-13T13:04:27;2.13;;;0.90;;
26113;SDS011;13966;48.828;9.064;2023-07-13T13:07:00;3.60;;;0.93;;
26113;SDS011;13966;48.828;9.064;2023-07-13T13:09:27;4.38;;;1.00;;
26113;SDS011;13966;48.828;9.064;2023-07-13T13:11:53;3.15;;;1.13;;
26113;SDS011;13966;48.828;9.064;2023-07-13T13:14:19;3.20;;;0.90;;
26113;SDS011;13966;48.828;9.064;2023-07-13T13:16:48;3.28;;;0.90;;
26113;SDS011;13966;48.828;9.064;2023-07-13T13:19:16;3.90;;;1.08;;
26113;SDS011;13966;48.828;9.064;2023-07-13T13:21:43;1.80;;;0.90;;
26113;SDS011;13966;48.828;9.064;2023-07-13T13:24:12;4.18;;;1.20;;
26113;SDS011;13966;48.828;9.064;2023-07-13T13:26:39;2.90;;;0.90;;
26113;SDS011;13966;48.828;9.064;2023-07-13T13:29:15;2.70;;;1.00;;
26113;SDS011;13966;48.828;9.064;2023-07-13T13:31:41;3.53;;;0.93;;
26113;SDS011;13966;48.828;9.064;2023-07-13T13:34:11;2.35;;;0.70;;
26113;SDS011;13966;48.828;9.064;2023-07-13T13:36:38;5.13;;;1.00;;
26113;SDS011;13966;48.828;9.064;2023-07-13T13:39:08;2.60;;;0.60;;
26113;SDS011;13966;48.828;9.064;2023-07-13T13:41:41;3.00;;;0.93;;
26113;SDS011;13966;48.828;9.064;2023-07-13T13:44:09;5.40;;;0.85;;
26113;SDS011;13966;48.828;9.064;2023-07-13T13:46:35;1.58;;;0.80;;
26113;SDS011;13966;48.828;9.064;2023-07-13T13:49:01;3.22;;;0.95;;
26113;SDS011;13966;48.828;9.064;2023-07-13T13:51:27;4.63;;;1.05;;
26113;SDS011;13966;48.828;9.064;2023-07-13T13:53:54;2.20;;;0.95;;
26113;SDS011;13966;48.828;9.064;2023-07-13T13:56:21;5.53;;;1.08;;
26113;SDS011;13966;48.828;9.064;2023-07-13T13:58:47;2.35;;;0.80;;
26113;SDS011;13966;48.828;9.064;2023-07-13T14:01:14;3.50;;;0.73;;
26113;SDS011;13966;48.828;9.064;2023-07-13T14:03:42;5.15;;;1.00;;
26113;SDS011;13966;48.828;9.064;2023-07-13T14:06:12;2.58;;;0.93;;
26113;SDS011;13966;48.828;9.064;2023-07-13T14:08:39;4.25;;;0.88;;
26113;SDS011;13966;48.828;9.064;2023-07-13T14:11:05;4.97;;;1.00;;
26113;SDS011;13966;48.828;9.064;2023-07-13T14:13:32;2.20;;;0.82;;
26113;SDS011;13966;48.828;9.064;2023-07-13T14:16:01;3.78;;;0.90;;
26113;SDS011;13966;48.828;9.064;2023-07-13T14:18:27;4.72;;;0.95;;
26113;SDS011;13966;48.828;9.064;2023-07-13T14:20:53;3.42;;;1.05;;
26113;SDS011;13966;48.828;9.064;2023-07-13T14:23:19;3.72;;;0.93;;
26113;SDS011;13966;48.828;9.064;2023-07-13T14:25:46;2.58;;;1.17;;
26113;SDS011;13966;48.828;9.064;2023-07-13T14:28:19;4.22;;;1.02;;
26113;SDS011;13966;48.828;9.064;2023-07-13T14:30:46;3.38;;;1.30;;
26113;SDS011;13966;48.828;9.064;2023-07-13T14:33:12;3.72;;;0.82;;
26113;SDS011;13966;48.828;9.064;2023-07-13T14:35:38;2.85;;;0.93;;
26113;SDS011;13966;48.828;9.064;2023-07-13T14:38:04;2.78;;;0.98;;
26113;SDS011;13966;48.828;9.064;2023-07-13T14:40:31;1.50;;;0.65;;
26113;SDS011;13966;48.828;9.064;2023-07-13T14:42:57;2.45;;;1.00;;
26113;SDS011;13966;48.828;9.064;2023-07-13T14:45:24;4.43;;;0.90;;
26113;SDS011;13966;48.828;9.064;2023-07-13T14:47:50;8.00;;;1.10;;
26113;SDS011;13966;48.828;9.064;2023-07-13T14:50:20;4.15;;;1.20;;
26113;SDS011;13966;48.828;9.064;2023-07-13T14:52:47;1.42;;;0.80;;
26113;SDS011;13966;48.828;9.064;2023-07-13T14:55:14;4.13;;;1.08;;
26113;SDS011;13966;48.828;9.064;2023-07-13T14:57:41;2.08;;;0.82;;
26113;SDS011;13966;48.828;9.064;2023-07-13T15:00:25;3.92;;;1.00;;
26113;SDS011;13966;48.828;9.064;2023-07-13T15:02:52;6.30;;;1.20;;
26113;SDS011;13966;48.828;9.064;2023-07-13T15:05:29;6.47;;;1.10;;
26113;SDS011;13966;48.828;9.064;2023-07-13T15:07:59;3.00;;;1.02;;
26113;SDS011;13966;48.828;9.064;2023-07-13T15:10:28;4.63;;;1.10;;
26113;SDS011;13966;48.828;9.064;2023-07-13T15:12:58;5.50;;;1.33;;
26113;SDS011;13966;48.828;9.064;2023-07-13T15:15:25;6.72;;;1.00;;
26113;SDS011;13966;48.828;9.064;2023-07-13T15:17:52;1.55;;;0.90;;
26113;SDS011;13966;48.828;9.064;2023-07-13T15:20:19;4.13;;;0.88;;
26113;SDS011;13966;48.828;9.064;2023-07-13T15:22:47;1.58;;;0.95;;
26113;SDS011;13966;48.828;9.064;2023-07-13T15:25:18;2.75;;;0.95;;
26113;SDS011;13966;48.828;9.064;2023-07-13T15:27:44;2.55;;;1.20;;